createdAt,value
2024-02-15T00:01:06.680Z,101392.06
2024-02-15T00:03:52.023Z,101379.00
2024-02-15T00:06:19.021Z,101387.69
2024-02-15T00:08:46.122Z,101386.84
2024-02-15T00:11:14.850Z,101383.38
2024-02-15T00:13:42.130Z,101383.38
2024-02-15T00:16:09.080Z,101379.88
2024-02-15T00:18:36.170Z,101380.75
2024-02-15T00:21:03.146Z,101381.59
2024-02-15T00:23:30.116Z,101390.31
2024-02-15T00:25:57.038Z,101391.19
2024-02-15T00:28:25.096Z,101393.78
2024-02-15T00:30:52.013Z,101392.06
2024-02-15T00:33:19.009Z,101391.19
2024-02-15T00:35:46.249Z,101385.09
2024-02-15T00:38:13.157Z,101389.44
2024-02-15T00:40:41.096Z,101392.06
2024-02-15T00:43:08.010Z,101392.06
2024-02-15T00:45:34.937Z,101386.81
2024-02-15T00:48:02.060Z,101389.47
2024-02-15T00:50:29.331Z,101387.75
2024-02-15T00:52:56.417Z,101396.44
2024-02-15T00:55:23.400Z,101383.38
2024-02-15T00:57:50.335Z,101393.84
2024-02-15T01:00:17.479Z,101388.66
2024-02-15T01:02:44.461Z,101388.66
2024-02-15T01:05:11.511Z,101388.59
2024-02-15T01:07:38.555Z,101382.53
2024-02-15T01:10:07.112Z,101392.97
2024-02-15T01:12:34.199Z,101387.75
2024-02-15T01:15:01.155Z,101390.41
2024-02-15T01:17:28.216Z,101393.88
2024-02-15T01:19:55.259Z,101387.75
2024-02-15T01:22:24.868Z,101396.47
2024-02-15T01:24:51.912Z,101397.34
2024-02-15T01:27:18.859Z,101392.97
2024-02-15T01:29:45.783Z,101382.53
2024-02-15T01:32:12.723Z,101385.16
2024-02-15T01:34:39.664Z,101386.03
2024-02-15T01:37:06.707Z,101386.91
2024-02-15T01:39:33.647Z,101390.41
2024-02-15T01:42:00.653Z,101390.41
2024-02-15T01:44:28.005Z,101384.31
2024-02-15T01:46:55.688Z,101381.66
2024-02-15T01:49:28.777Z,101388.69
2024-02-15T01:51:58.200Z,101386.06
2024-02-15T01:54:26.073Z,101380.81
2024-02-15T01:56:53.972Z,101384.28
2024-02-15T01:59:24.093Z,101382.56
2024-02-15T02:01:52.007Z,101373.84
2024-02-15T02:04:18.906Z,101377.34
2024-02-15T02:06:45.870Z,101375.59
2024-02-15T02:09:17.014Z,101377.38
2024-02-15T02:11:47.629Z,101375.59
2024-02-15T02:14:14.824Z,101371.25
2024-02-15T02:16:41.742Z,101372.13
2024-02-15T02:19:10.536Z,101363.38
2024-02-15T02:21:39.964Z,101363.38
2024-02-15T02:24:22.525Z,101367.75
2024-02-15T02:26:50.294Z,101341.53
2024-02-15T02:29:17.711Z,101364.25
2024-02-15T02:31:44.649Z,101372.09
2024-02-15T02:34:12.017Z,101373.84
2024-02-15T02:36:39.200Z,101370.38
2024-02-15T02:39:06.242Z,101370.38
2024-02-15T02:41:33.382Z,101370.41
2024-02-15T02:44:00.436Z,101375.63
2024-02-15T02:46:27.401Z,101377.38
2024-02-15T02:48:54.513Z,101377.34
2024-02-15T02:51:21.639Z,101375.59
2024-02-15T02:53:48.760Z,101374.72
2024-02-15T02:56:16.017Z,101373.00
2024-02-15T02:58:45.722Z,101361.66
2024-02-15T03:01:12.843Z,101371.22
2024-02-15T03:03:40.825Z,101359.91
2024-02-15T03:06:08.045Z,101361.66
2024-02-15T03:08:35.386Z,101366.00
2024-02-15T03:11:02.834Z,101362.53
2024-02-15T03:13:30.376Z,101356.44
2024-02-15T03:15:57.331Z,101367.75
2024-02-15T03:18:25.647Z,101362.53
2024-02-15T03:20:53.079Z,101365.16
2024-02-15T03:23:20.134Z,101363.41
2024-02-15T03:25:47.090Z,101356.47
2024-02-15T03:28:14.873Z,101359.06
2024-02-15T03:30:41.775Z,101359.91
2024-02-15T03:33:08.771Z,101355.56
2024-02-15T03:35:36.440Z,101365.19
2024-02-15T03:38:03.483Z,101364.31
2024-02-15T03:40:31.500Z,101369.53
2024-02-15T03:42:58.833Z,101369.53
2024-02-15T03:45:27.139Z,101371.25
2024-02-15T03:47:55.042Z,101359.88
2024-02-15T03:50:23.185Z,101371.25
2024-02-15T03:52:51.655Z,101375.66
2024-02-15T03:55:18.907Z,101371.28
2024-02-15T03:57:47.672Z,101381.72
2024-02-15T04:00:22.596Z,101374.78
2024-02-15T04:02:50.486Z,101376.50
2024-02-15T04:05:19.517Z,101371.28
2024-02-15T04:07:46.773Z,101370.44
2024-02-15T04:10:14.136Z,101377.41
2024-02-15T04:12:43.308Z,101373.91
2024-02-15T04:15:15.658Z,101367.81
2024-02-15T04:17:43.812Z,101369.53
2024-02-15T04:20:13.304Z,101380.00
2024-02-15T04:22:43.592Z,101366.91
2024-02-15T04:25:11.557Z,101369.56
2024-02-15T04:27:38.638Z,101373.94
2024-02-15T04:30:06.128Z,101368.72
2024-02-15T04:32:35.582Z,101369.59
2024-02-15T04:35:04.359Z,101360.03
2024-02-15T04:37:33.640Z,101368.72
2024-02-15T04:40:09.318Z,101364.41
2024-02-15T04:42:40.710Z,101363.50
2024-02-15T04:45:13.745Z,101363.50
2024-02-15T04:47:44.636Z,101364.38
2024-02-15T04:50:12.149Z,101362.63
2024-02-15T04:52:39.569Z,101361.75
2024-02-15T04:55:06.989Z,101363.47
2024-02-15T04:57:36.153Z,101360.91
2024-02-15T05:00:10.404Z,101361.78
2024-02-15T05:02:41.424Z,101367.84
2024-02-15T05:05:09.260Z,101364.38
2024-02-15T05:07:38.622Z,101366.13
2024-02-15T05:10:07.744Z,101361.75
2024-02-15T05:12:34.832Z,101360.03
2024-02-15T05:15:02.019Z,101367.84
2024-02-15T05:17:31.057Z,101366.13
2024-02-15T05:20:00.309Z,101361.75
2024-02-15T05:22:30.348Z,101369.56
2024-02-15T05:24:57.256Z,101352.09
2024-02-15T05:27:24.578Z,101367.84
2024-02-15T05:29:53.846Z,101370.47
2024-02-15T05:32:21.334Z,101367.88
2024-02-15T05:34:49.082Z,101371.34
2024-02-15T05:37:16.957Z,101361.72
2024-02-15T05:39:44.189Z,101374.81
2024-02-15T05:42:11.684Z,101372.19
2024-02-15T05:44:38.675Z,101371.31
2024-02-15T05:47:05.747Z,101373.06
2024-02-15T05:49:32.795Z,101374.81
2024-02-15T05:51:59.825Z,101373.09
2024-02-15T05:54:26.753Z,101374.81
2024-02-15T05:56:55.047Z,101373.94
2024-02-15T05:59:22.349Z,101371.34
2024-02-15T06:01:49.682Z,101371.34
2024-02-15T06:04:17.945Z,101370.50
2024-02-15T06:06:49.817Z,101373.97
2024-02-15T06:09:17.688Z,101360.88
2024-02-15T06:11:46.658Z,101370.50
2024-02-15T06:14:13.944Z,101377.47
2024-02-15T06:16:47.197Z,101375.72
2024-02-15T06:19:15.829Z,101387.97
2024-02-15T06:21:43.437Z,101384.44
2024-02-15T06:24:11.579Z,101381.00
2024-02-15T06:26:38.767Z,101393.19
2024-02-15T06:29:24.216Z,101387.09
2024-02-15T06:32:09.684Z,101387.94
2024-02-15T06:34:55.676Z,101398.41
2024-02-15T06:37:59.465Z,101387.94
2024-02-15T06:40:26.351Z,101400.97
2024-02-15T06:42:53.303Z,101397.50
2024-02-15T06:45:20.961Z,101413.19
2024-02-15T06:47:48.208Z,101410.56
2024-02-15T06:50:15.528Z,101412.31
2024-02-15T06:52:42.785Z,101410.59
2024-02-15T06:55:13.065Z,101416.69
2024-02-15T06:57:42.851Z,101410.63
2024-02-15T07:00:16.846Z,101409.78
2024-02-15T07:02:45.795Z,101406.28
2024-02-15T07:05:13.005Z,101414.97
2024-02-15T07:07:40.420Z,101415.00
2024-02-15T07:10:08.122Z,101406.28
2024-02-15T07:12:35.259Z,101420.28
2024-02-15T07:15:03.015Z,101419.41
2024-02-15T07:17:30.575Z,101418.56
2024-02-15T07:19:57.591Z,101412.44
2024-02-15T07:22:24.575Z,101412.44
2024-02-15T07:24:51.521Z,101411.59
2024-02-15T07:27:19.633Z,101405.50
2024-02-15T07:29:46.607Z,101409.88
2024-02-15T07:32:13.619Z,101402.91
2024-02-15T07:34:40.588Z,101405.59
2024-02-15T07:37:08.685Z,101404.69
2024-02-15T07:39:37.375Z,101412.59
2024-02-15T07:42:05.826Z,101410.88
2024-02-15T07:44:33.548Z,101412.63
2024-02-15T07:47:03.560Z,101418.78
2024-02-15T07:49:30.653Z,101424.88
2024-02-15T07:51:57.677Z,101427.53
2024-02-15T07:54:25.484Z,101424.03
2024-02-15T07:56:53.005Z,101425.78
2024-02-15T07:59:20.901Z,101425.78
2024-02-15T08:01:48.997Z,101423.16
2024-02-15T08:04:18.158Z,101427.53
2024-02-15T08:06:45.594Z,101426.66
2024-02-15T08:09:15.089Z,101426.69
2024-02-15T08:11:42.392Z,101435.41
2024-02-15T08:14:14.012Z,101437.16
2024-02-15T08:16:44.208Z,101426.69
2024-02-15T08:19:12.314Z,101421.44
2024-02-15T08:21:42.323Z,101437.16
2024-02-15T08:24:10.489Z,101432.81
2024-02-15T08:26:43.174Z,101437.16
2024-02-15T08:29:10.602Z,101435.41
2024-02-15T08:31:37.828Z,101425.84
2024-02-15T08:34:07.069Z,101433.69
2024-02-15T08:36:34.319Z,101425.88
2024-02-15T08:39:01.983Z,101435.50
2024-02-15T08:41:29.367Z,101413.63
2024-02-15T08:43:59.147Z,101438.13
2024-02-15T08:46:28.041Z,101433.81
2024-02-15T08:48:55.134Z,101432.06
2024-02-15T08:51:24.629Z,101419.88
2024-02-15T08:53:52.506Z,101431.22
2024-02-15T08:56:19.670Z,101433.84
2024-02-15T08:58:46.640Z,101425.16
2024-02-15T09:01:14.643Z,101433.91
2024-02-15T09:03:41.862Z,101423.44
2024-02-15T09:06:09.248Z,101438.28
2024-02-15T09:08:36.589Z,101435.66
2024-02-15T09:11:06.174Z,101431.31
2024-02-15T09:13:34.947Z,101441.78
2024-02-15T09:16:02.081Z,101442.66
2024-02-15T09:18:29.119Z,101439.19
2024-02-15T09:20:57.165Z,101441.81
2024-02-15T09:23:24.821Z,101448.81
2024-02-15T09:25:54.796Z,101445.31
2024-02-15T09:28:24.903Z,101446.19
2024-02-15T09:30:54.634Z,101449.69
2024-02-15T09:33:22.147Z,101447.94
2024-02-15T09:35:49.388Z,101457.53
2024-02-15T09:38:18.019Z,101454.06
2024-02-15T09:40:45.526Z,101454.94
2024-02-15T09:43:16.133Z,101461.03
2024-02-15T09:45:43.422Z,101448.81
2024-02-15T09:48:14.293Z,101460.19
2024-02-15T09:50:46.832Z,101447.09
2024-02-15T09:53:16.118Z,101456.72
2024-02-15T09:55:44.208Z,101459.31
2024-02-15T09:58:13.639Z,101457.59
2024-02-15T10:00:40.779Z,101455.00
2024-02-15T10:03:08.490Z,101456.72
2024-02-15T10:05:36.403Z,101454.09
2024-02-15T10:08:04.378Z,101461.13
2024-02-15T10:10:31.282Z,101459.38
2024-02-15T10:13:01.933Z,101461.16
2024-02-15T10:15:41.438Z,101466.38
2024-02-15T10:18:13.577Z,101455.91
2024-02-15T10:20:45.366Z,101447.16
2024-02-15T10:23:14.391Z,101462.00
2024-02-15T10:25:42.313Z,101459.41
2024-02-15T10:28:16.564Z,101444.53
2024-02-15T10:30:46.329Z,101442.78
2024-02-15T10:33:31.186Z,101453.28
2024-02-15T10:36:15.731Z,101445.44
2024-02-15T10:38:43.285Z,101448.03
2024-02-15T10:41:12.115Z,101446.28
2024-02-15T10:43:39.645Z,101448.91
2024-02-15T10:46:11.045Z,101448.88
2024-02-15T10:48:39.181Z,101442.75
2024-02-15T10:51:12.083Z,101444.50
2024-02-15T10:53:48.608Z,101446.25
2024-02-15T10:56:24.374Z,101448.88
2024-02-15T10:58:52.159Z,101434.00
2024-02-15T11:01:19.759Z,101436.63
2024-02-15T11:03:53.966Z,101428.75
2024-02-15T11:06:23.017Z,101428.75
2024-02-15T11:08:51.035Z,101434.00
2024-02-15T11:11:19.268Z,101433.97
2024-02-15T11:13:48.883Z,101443.59
2024-02-15T11:16:49.766Z,101431.34
2024-02-15T11:19:38.466Z,101431.34
2024-02-15T11:22:18.127Z,101440.13
2024-02-15T11:24:54.112Z,101438.38
2024-02-15T11:27:32.737Z,101446.25
2024-02-15T11:30:11.494Z,101440.09
2024-02-15T11:32:50.136Z,101444.47
2024-02-15T11:35:21.417Z,101440.13
2024-02-15T11:37:59.310Z,101440.09
2024-02-15T11:40:31.106Z,101438.38
2024-02-15T11:43:01.370Z,101444.47
2024-02-15T11:45:39.664Z,101452.38
2024-02-15T11:48:12.342Z,101448.00
2024-02-15T11:50:40.946Z,101447.97
2024-02-15T11:53:13.131Z,101440.09
2024-02-15T11:55:42.729Z,101432.28
2024-02-15T11:58:11.899Z,101434.88
2024-02-15T12:00:59.078Z,101434.88
2024-02-15T12:06:37.397Z,101437.50
2024-02-15T12:09:23.473Z,101423.50
2024-02-15T12:12:18.294Z,101428.75
2024-02-15T12:15:04.058Z,101429.59
2024-02-15T12:17:49.896Z,101436.63
2024-02-15T12:20:16.978Z,101427.00
2024-02-15T12:22:51.426Z,101432.22
2024-02-15T12:25:22.167Z,101430.44
2024-02-15T12:28:00.927Z,101436.56
2024-02-15T12:30:37.458Z,101433.06
2024-02-15T12:33:12.760Z,101435.66
2024-02-15T12:35:39.982Z,101430.41
2024-02-15T12:38:06.957Z,101435.66
2024-02-15T12:40:37.387Z,101432.16
2024-02-15T12:43:06.871Z,101426.03
2024-02-15T12:45:37.920Z,101426.91
2024-02-15T12:48:07.052Z,101418.16
2024-02-15T12:50:37.742Z,101420.78
2024-02-15T12:53:05.113Z,101421.66
2024-02-15T12:55:36.234Z,101415.53
2024-02-15T12:58:09.478Z,101405.91
2024-02-15T13:00:41.000Z,101415.50
2024-02-15T13:03:11.086Z,101409.41
2024-02-15T13:05:39.566Z,101395.41
2024-02-15T13:08:10.777Z,101395.41
2024-02-15T13:10:40.336Z,101390.16
2024-02-15T13:13:07.786Z,101391.03
2024-02-15T13:15:35.442Z,101392.75
2024-02-15T13:18:05.888Z,101390.13
2024-02-15T13:20:34.109Z,101391.91
2024-02-15T13:23:10.442Z,101392.78
2024-02-15T13:25:40.469Z,101380.53
2024-02-15T13:28:10.012Z,101390.13
2024-02-15T13:30:37.516Z,101384.00
2024-02-15T13:33:04.883Z,101383.16
2024-02-15T13:35:32.917Z,101391.00
2024-02-15T13:37:59.865Z,101389.25
2024-02-15T13:40:28.898Z,101388.38
2024-02-15T13:43:00.763Z,101391.00
2024-02-15T13:45:38.355Z,101393.59
2024-02-15T13:48:06.435Z,101386.63
2024-02-15T13:50:33.983Z,101384.00
2024-02-15T13:53:01.663Z,101390.09
2024-02-15T13:55:30.079Z,101395.31
2024-02-15T13:57:57.974Z,101391.81
2024-02-15T14:00:30.894Z,101395.31
2024-02-15T14:03:00.569Z,101383.94
2024-02-15T14:05:30.284Z,101395.28
2024-02-15T14:08:06.549Z,101387.41
2024-02-15T14:10:37.366Z,101387.41
2024-02-15T14:13:10.305Z,101390.91
2024-02-15T14:15:41.686Z,101386.50
2024-02-15T14:18:12.471Z,101383.88
2024-02-15T14:20:39.995Z,101381.25
2024-02-15T14:23:07.457Z,101376.91
2024-02-15T14:25:34.835Z,101375.16
2024-02-15T14:28:04.027Z,101378.66
2024-02-15T14:30:49.552Z,101369.91
2024-02-15T14:35:47.440Z,101373.44
2024-02-15T14:38:14.955Z,101375.19
2024-02-15T14:40:46.230Z,101369.06
2024-02-15T14:43:19.723Z,101374.31
2024-02-15T14:45:47.138Z,101371.72
2024-02-15T14:48:15.150Z,101376.97
2024-02-15T14:50:43.551Z,101378.72
2024-02-15T14:53:10.724Z,101383.09
2024-02-15T14:55:43.991Z,101378.75
2024-02-15T14:58:13.455Z,101385.75
2024-02-15T15:00:43.605Z,101381.38
2024-02-15T15:03:13.107Z,101377.91
2024-02-15T15:05:59.370Z,101375.28
2024-02-15T15:08:45.313Z,101379.66
2024-02-15T15:11:30.811Z,101377.03
2024-02-15T15:13:57.792Z,101378.78
2024-02-15T15:16:26.413Z,101375.28
2024-02-15T15:18:53.740Z,101382.31
2024-02-15T15:21:23.936Z,101375.28
2024-02-15T15:23:51.248Z,101369.13
2024-02-15T15:26:22.829Z,101373.53
2024-02-15T15:28:51.032Z,101370.03
2024-02-15T15:31:18.596Z,101372.66
2024-02-15T15:33:46.074Z,101367.41
2024-02-15T15:36:13.495Z,101374.41
2024-02-15T15:38:40.706Z,101370.94
2024-02-15T15:41:10.983Z,101374.38
2024-02-15T15:43:38.765Z,101378.78
2024-02-15T15:46:06.345Z,101379.69
2024-02-15T15:48:37.965Z,101377.03
2024-02-15T15:51:06.675Z,101384.91
2024-02-15T15:53:35.271Z,101384.03
2024-02-15T15:56:02.540Z,101376.16
2024-02-15T15:58:29.578Z,101377.91
2024-02-15T16:00:57.458Z,101381.41
2024-02-15T16:03:24.560Z,101378.78
2024-02-15T16:05:52.210Z,101374.41
2024-02-15T16:08:19.147Z,101375.28
2024-02-15T16:10:46.562Z,101381.41
2024-02-15T16:13:13.995Z,101382.25
2024-02-15T16:15:44.866Z,101381.41
2024-02-15T16:18:11.951Z,101370.06
2024-02-15T16:20:39.643Z,101380.53
2024-02-15T16:23:07.569Z,101382.31
2024-02-15T16:25:35.148Z,101373.56
2024-02-15T16:28:03.392Z,101366.59
2024-02-15T16:30:30.472Z,101373.63
2024-02-15T16:32:57.579Z,101367.50
2024-02-15T16:35:24.624Z,101377.97
2024-02-15T16:37:51.561Z,101372.78
2024-02-15T16:40:18.494Z,101380.66
2024-02-15T16:42:48.739Z,101383.28
2024-02-15T16:45:19.595Z,101375.38
2024-02-15T16:47:57.092Z,101381.53
2024-02-15T16:50:24.834Z,101383.28
2024-02-15T16:52:52.697Z,101379.78
2024-02-15T16:55:29.404Z,101382.41
2024-02-15T16:58:04.411Z,101381.53
2024-02-15T17:00:32.856Z,101382.44
2024-02-15T17:03:00.095Z,101384.16
2024-02-15T17:05:29.552Z,101390.28
2024-02-15T17:08:00.265Z,101375.41
2024-02-15T17:10:27.546Z,101380.66
2024-02-15T17:12:54.889Z,101391.16
2024-02-15T17:15:26.894Z,101390.28
2024-02-15T17:17:55.596Z,101392.03
2024-02-15T17:20:24.353Z,101385.06
2024-02-15T17:22:51.624Z,101393.78
2024-02-15T17:25:18.706Z,101393.78
2024-02-15T17:27:45.682Z,101392.91
2024-02-15T17:30:14.665Z,101398.16
2024-02-15T17:32:44.413Z,101392.91
2024-02-15T17:35:14.354Z,101397.28
2024-02-15T17:37:42.243Z,101398.16
2024-02-15T17:40:13.597Z,101397.28
2024-02-15T17:42:42.290Z,101399.91
2024-02-15T17:45:11.031Z,101396.41
2024-02-15T17:47:40.609Z,101394.66
2024-02-15T17:50:15.390Z,101402.56
2024-02-15T17:52:44.937Z,101393.81
2024-02-15T17:55:12.006Z,101386.81
2024-02-15T17:57:39.775Z,101384.19
2024-02-15T18:00:16.053Z,101390.28
2024-02-15T18:02:50.029Z,101385.06
2024-02-15T18:05:19.708Z,101379.81
2024-02-15T18:07:47.403Z,101375.47
2024-02-15T18:10:16.053Z,101377.22
2024-02-15T18:12:43.333Z,101378.06
2024-02-15T18:15:25.441Z,101385.97
2024-02-15T18:17:57.587Z,101391.19
2024-02-15T18:20:25.973Z,101384.19
2024-02-15T18:22:53.250Z,101385.06
2024-02-15T18:25:20.348Z,101385.06
2024-02-15T18:27:48.008Z,101378.94
2024-02-15T18:30:19.315Z,101376.31
2024-02-15T18:32:47.217Z,101370.19
2024-02-15T18:35:17.061Z,101377.19
2024-02-15T18:37:44.685Z,101373.72
2024-02-15T18:40:21.786Z,101369.34
2024-02-15T18:42:52.047Z,101351.88
2024-02-15T18:45:19.320Z,101357.97
2024-02-15T18:47:46.658Z,101355.34
2024-02-15T18:50:14.022Z,101354.47
2024-02-15T18:52:42.102Z,101352.72
2024-02-15T18:55:11.742Z,101356.22
2024-02-15T18:57:38.707Z,101358.00
2024-02-15T19:00:16.030Z,101354.47
2024-02-15T19:02:53.196Z,101351.84
2024-02-15T19:05:23.840Z,101357.09
2024-02-15T19:07:52.118Z,101363.22
2024-02-15T19:10:20.979Z,101357.97
2024-02-15T19:12:48.086Z,101350.13
2024-02-15T19:15:15.780Z,101352.72
2024-02-15T19:17:42.942Z,101350.09
2024-02-15T19:20:10.729Z,101356.19
2024-02-15T19:22:41.677Z,101350.09
2024-02-15T19:25:10.297Z,101356.22
2024-02-15T19:27:37.932Z,101349.22
2024-02-15T19:30:05.424Z,101354.47
2024-02-15T19:32:32.386Z,101347.44
2024-02-15T19:34:59.581Z,101355.34
2024-02-15T19:37:31.172Z,101352.72
2024-02-15T19:39:58.119Z,101350.09
2024-02-15T19:42:25.097Z,101353.56
2024-02-15T19:44:52.061Z,101356.22
2024-02-15T19:47:21.445Z,101351.84
2024-02-15T19:49:48.406Z,101352.75
2024-02-15T19:52:16.781Z,101353.59
2024-02-15T19:54:43.713Z,101355.34
2024-02-15T19:57:10.677Z,101352.72
2024-02-15T19:59:37.705Z,101353.59
2024-02-15T20:02:04.857Z,101348.34
2024-02-15T20:04:36.595Z,101345.72
2024-02-15T20:07:04.714Z,101348.38
2024-02-15T20:09:40.391Z,101340.47
2024-02-15T20:12:15.006Z,101342.25
2024-02-15T20:14:42.400Z,101343.13
2024-02-15T20:17:11.236Z,101340.53
2024-02-15T20:19:38.999Z,101343.13
2024-02-15T20:22:06.066Z,101351.00
2024-02-15T20:24:33.841Z,101346.63
2024-02-15T20:27:01.538Z,101339.63
2024-02-15T20:29:31.526Z,101341.38
2024-02-15T20:31:59.585Z,101335.25
2024-02-15T20:34:27.748Z,101343.13
2024-02-15T20:36:54.861Z,101350.09
2024-02-15T20:39:22.347Z,101336.13
2024-02-15T20:41:50.229Z,101335.28
2024-02-15T20:44:18.131Z,101335.25
2024-02-15T20:46:45.633Z,101332.63
2024-02-15T20:49:14.137Z,101339.63
2024-02-15T20:51:41.297Z,101329.16
2024-02-15T20:54:08.255Z,101342.25
2024-02-15T20:56:37.620Z,101345.75
2024-02-15T20:59:06.333Z,101340.53
2024-02-15T21:01:34.963Z,101335.25
2024-02-15T21:04:05.990Z,101337.88
2024-02-15T21:06:33.428Z,101345.75
2024-02-15T21:09:00.590Z,101339.63
2024-02-15T21:11:27.612Z,101334.38
2024-02-15T21:13:54.525Z,101335.25
2024-02-15T21:16:22.856Z,101330.88
2024-02-15T21:18:54.118Z,101332.63
2024-02-15T21:21:23.269Z,101333.50
2024-02-15T21:23:50.444Z,101333.50
2024-02-15T21:26:17.679Z,101331.75
2024-02-15T21:28:45.302Z,101335.22
2024-02-15T21:31:16.487Z,101328.25
2024-02-15T21:33:47.259Z,101324.75
2024-02-15T21:36:15.414Z,101319.53
2024-02-15T21:38:44.787Z,101323.91
2024-02-15T21:41:12.649Z,101316.91
2024-02-15T21:43:39.762Z,101318.66
2024-02-15T21:46:06.753Z,101316.91
2024-02-15T21:48:34.386Z,101315.19
2024-02-15T21:51:01.580Z,101317.78
2024-02-15T21:53:28.584Z,101316.91
2024-02-15T21:55:55.549Z,101316.06
2024-02-15T21:58:22.440Z,101323.91
2024-02-15T22:00:49.385Z,101322.19
2024-02-15T22:03:16.966Z,101323.94
2024-02-15T22:05:44.024Z,101323.03
2024-02-15T22:08:14.736Z,101308.22
2024-02-15T22:10:42.493Z,101316.06
2024-02-15T22:13:15.380Z,101309.09
2024-02-15T22:15:42.513Z,101309.94
2024-02-15T22:18:10.196Z,101306.47
2024-02-15T22:20:37.222Z,101313.44
2024-02-15T22:23:04.350Z,101309.09
2024-02-15T22:25:34.060Z,101304.72
2024-02-15T22:28:00.969Z,101306.44
2024-02-15T22:30:28.063Z,101307.34
2024-02-15T22:32:56.995Z,101311.72
2024-02-15T22:35:24.826Z,101308.19
2024-02-15T22:37:51.820Z,101308.19
2024-02-15T22:40:18.908Z,101304.72
2024-02-15T22:42:45.814Z,101309.09
2024-02-15T22:45:14.474Z,101313.47
2024-02-15T22:47:43.139Z,101312.59
2024-02-15T22:50:10.448Z,101313.47
2024-02-15T22:52:38.070Z,101316.09
2024-02-15T22:55:05.360Z,101305.63
2024-02-15T22:57:32.847Z,101311.69
2024-02-15T23:00:00.341Z,101314.34
2024-02-15T23:02:27.313Z,101312.59
2024-02-15T23:04:54.339Z,101321.31
2024-02-15T23:07:24.452Z,101321.31
2024-02-15T23:09:51.609Z,101322.19
2024-02-15T23:12:18.733Z,101311.72
2024-02-15T23:14:45.847Z,101320.44
2024-02-15T23:17:12.966Z,101309.94
2024-02-15T23:19:40.600Z,101311.69
2024-02-15T23:22:10.090Z,101302.06
2024-02-15T23:24:38.558Z,101298.56
2024-02-15T23:27:06.476Z,101298.59
2024-02-15T23:29:33.667Z,101305.56
2024-02-15T23:32:00.603Z,101299.44
2024-02-15T23:34:27.554Z,101309.94
2024-02-15T23:37:13.344Z,101306.44
2024-02-15T23:39:58.801Z,101301.22
2024-02-15T23:42:26.583Z,101302.06
2024-02-15T23:44:54.463Z,101303.81
2024-02-15T23:47:21.605Z,101294.22
2024-02-15T23:49:49.128Z,101297.72
2024-02-15T23:52:16.265Z,101309.09
2024-02-15T23:54:43.335Z,101290.72
2024-02-15T23:57:10.515Z,101287.22
2024-02-15T23:59:37.522Z,101283.72
